Time;durP1;ratioP1;P1;durP2;ratioP2;P2;SDS_P1;SDS_P2;PMS_P1;PMS_P2;Temp;Humidity;BMP_temperature;BMP_pressure;BME280_temperature;BME280_humidity;BME280_pressure;Samples;Min_cycle;Max_cycle;Signal;HPM_P1;HPM_P2
2021/08/26 00:00:09;;;;;;;1.52;0.85;;;;;;;;;;5011722;28;20428;-60
2021/08/26 00:08:04;;;;;;;1.20;0.60;;;;;;;;;;5011251;28;20443;-58
2021/08/26 00:10:30;;;;;;;4.43;0.95;;;;;;;;;;5010885;28;20516;-59
2021/08/26 00:12:57;;;;;;;1.30;0.70;;;;;;;;;;5011573;28;20408;-58
2021/08/26 00:15:23;;;;;;;0.93;0.60;;;;;;;;;;5011462;28;20392;-60
2021/08/26 00:17:49;;;;;;;1.88;0.82;;;;;;;;;;5010408;28;20393;-60
2021/08/26 00:20:15;;;;;;;2.72;1.08;;;;;;;;;;5011748;28;20408;-60
2021/08/26 00:22:41;;;;;;;1.73;0.70;;;;;;;;;;5011942;28;20377;-60
2021/08/26 00:25:07;;;;;;;2.37;0.80;;;;;;;;;;5011322;28;20492;-60
2021/08/26 00:27:33;;;;;;;2.03;0.93;;;;;;;;;;5010678;28;20638;-60
2021/08/26 00:29:59;;;;;;;2.15;1.02;;;;;;;;;;5009230;28;20426;-60
2021/08/26 00:32:25;;;;;;;1.83;0.70;;;;;;;;;;5010804;28;20397;-60
2021/08/26 00:34:52;;;;;;;2.90;0.80;;;;;;;;;;5009751;28;20420;-61
2021/08/26 00:37:18;;;;;;;1.70;0.70;;;;;;;;;;5004218;28;20423;-60
2021/08/26 00:39:44;;;;;;;1.40;0.80;;;;;;;;;;5010782;28;20542;-60
2021/08/26 00:42:10;;;;;;;1.40;0.80;;;;;;;;;;5019952;28;20849;-60
2021/08/26 00:44:36;;;;;;;2.10;1.00;;;;;;;;;;5011129;28;20413;-60
2021/08/26 00:47:02;;;;;;;2.10;1.10;;;;;;;;;;5010659;28;20952;-58
2021/08/26 00:49:30;;;;;;;2.08;0.95;;;;;;;;;;5010692;28;20527;-59
2021/08/26 00:51:56;;;;;;;1.40;0.93;;;;;;;;;;5011411;28;20787;-60
2021/08/26 00:54:22;;;;;;;2.10;1.00;;;;;;;;;;5009548;28;20400;-60
2021/08/26 00:56:48;;;;;;;2.30;1.10;;;;;;;;;;5002274;28;20804;-60
2021/08/26 00:59:14;;;;;;;2.00;1.00;;;;;;;;;;5010024;28;20401;-60
2021/08/26 01:01:43;;;;;;;2.10;1.13;;;;;;;;;;5009511;28;20419;-60
2021/08/26 01:04:14;;;;;;;1.67;1.05;;;;;;;;;;5010694;28;20476;-59
2021/08/26 01:06:43;;;;;;;1.77;1.00;;;;;;;;;;5009538;28;20787;-58
2021/08/26 01:09:10;;;;;;;2.70;1.38;;;;;;;;;;5010103;28;20415;-59
2021/08/26 01:11:42;;;;;;;2.03;1.00;;;;;;;;;;5009204;28;20505;-60
2021/08/26 01:14:09;;;;;;;1.35;0.90;;;;;;;;;;5010364;28;20435;-59
2021/08/26 01:16:36;;;;;;;2.03;0.93;;;;;;;;;;5004749;28;20774;-60
2021/08/26 01:19:02;;;;;;;3.67;1.13;;;;;;;;;;5009667;28;20429;-60
2021/08/26 01:21:29;;;;;;;3.43;1.37;;;;;;;;;;5010540;28;20892;-60
2021/08/26 01:23:57;;;;;;;2.55;1.08;;;;;;;;;;5010597;28;20392;-60
2021/08/26 01:26:24;;;;;;;1.40;1.10;;;;;;;;;;5007158;28;20550;-60
2021/08/26 01:28:53;;;;;;;2.85;1.33;;;;;;;;;;5004574;28;20504;-58
2021/08/26 01:31:21;;;;;;;2.28;1.38;;;;;;;;;;5010028;28;20802;-60
2021/08/26 01:33:50;;;;;;;2.33;1.15;;;;;;;;;;5009499;28;20393;-60
2021/08/26 01:36:17;;;;;;;3.97;1.67;;;;;;;;;;5008001;28;20451;-60
2021/08/26 01:38:43;;;;;;;2.23;1.40;;;;;;;;;;5010129;28;20400;-60
2021/08/26 01:41:09;;;;;;;3.58;1.17;;;;;;;;;;5010924;28;20388;-59
2021/08/26 01:43:37;;;;;;;2.80;1.67;;;;;;;;;;5007871;28;20479;-59
2021/08/26 01:46:03;;;;;;;2.92;1.23;;;;;;;;;;5008036;28;20426;-59
2021/08/26 01:48:29;;;;;;;3.38;1.40;;;;;;;;;;5009630;28;20422;-59
2021/08/26 01:50:55;;;;;;;3.42;1.50;;;;;;;;;;5010673;28;20400;-60
2021/08/26 01:53:21;;;;;;;3.40;1.60;;;;;;;;;;5010293;28;20857;-60
2021/08/26 01:55:47;;;;;;;2.85;1.30;;;;;;;;;;5006128;28;20391;-60
2021/08/26 01:58:13;;;;;;;3.03;1.30;;;;;;;;;;5009986;28;20439;-60
2021/08/26 02:00:39;;;;;;;2.07;1.27;;;;;;;;;;5022473;28;20551;-60
2021/08/26 02:03:05;;;;;;;2.53;1.23;;;;;;;;;;5008979;28;20488;-60
2021/08/26 02:05:31;;;;;;;4.13;1.50;;;;;;;;;;5008320;28;20513;-60
2021/08/26 02:07:57;;;;;;;4.10;1.30;;;;;;;;;;5009858;28;20855;-59
2021/08/26 02:10:23;;;;;;;6.95;1.50;;;;;;;;;;5010236;28;20464;-60
2021/08/26 02:12:50;;;;;;;3.63;1.45;;;;;;;;;;5014072;28;20500;-60
2021/08/26 02:15:16;;;;;;;4.28;1.50;;;;;;;;;;5013625;28;20843;-60
2021/08/26 02:17:42;;;;;;;2.75;1.33;;;;;;;;;;5002108;28;20971;-59
2021/08/26 02:20:09;;;;;;;1.80;1.00;;;;;;;;;;5012959;28;20487;-59
2021/08/26 02:22:35;;;;;;;4.13;1.07;;;;;;;;;;5014132;28;20396;-60
2021/08/26 02:25:01;;;;;;;1.77;1.20;;;;;;;;;;5013784;28;20392;-60
2021/08/26 02:27:27;;;;;;;3.43;1.17;;;;;;;;;;5013352;28;20399;-60
2021/08/26 02:29:53;;;;;;;3.15;1.60;;;;;;;;;;5012835;28;20516;-60
2021/08/26 02:32:19;;;;;;;2.97;1.63;;;;;;;;;;5012641;28;20397;-60
2021/08/26 02:34:45;;;;;;;3.65;1.20;;;;;;;;;;5013162;28;20400;-60
2021/08/26 02:37:11;;;;;;;4.30;1.50;;;;;;;;;;5010436;28;20749;-59
2021/08/26 02:39:37;;;;;;;4.33;1.40;;;;;;;;;;5011791;28;20397;-60
2021/08/26 02:42:04;;;;;;;4.43;1.42;;;;;;;;;;5013512;28;20442;-60
2021/08/26 02:44:30;;;;;;;2.10;1.30;;;;;;;;;;5012937;28;20405;-60
2021/08/26 02:46:56;;;;;;;8.82;1.75;;;;;;;;;;5013277;28;20404;-60
2021/08/26 02:49:22;;;;;;;4.25;1.67;;;;;;;;;;5012935;28;20408;-60
2021/08/26 02:51:48;;;;;;;7.75;1.67;;;;;;;;;;5013570;28;20389;-58
2021/08/26 02:54:14;;;;;;;3.92;1.55;;;;;;;;;;5010745;28;20416;-60
2021/08/26 02:56:40;;;;;;;3.25;1.13;;;;;;;;;;5017146;28;20462;-60
2021/08/26 02:59:07;;;;;;;4.93;1.73;;;;;;;;;;5012183;28;20404;-60
2021/08/26 03:01:33;;;;;;;3.17;1.77;;;;;;;;;;5012447;28;20447;-60
2021/08/26 03:03:59;;;;;;;5.95;1.70;;;;;;;;;;5012564;28;20404;-59
2021/08/26 03:06:25;;;;;;;2.90;1.10;;;;;;;;;;5012457;28;20404;-60
2021/08/26 03:08:51;;;;;;;3.67;1.30;;;;;;;;;;5012141;28;20885;-60
2021/08/26 03:11:17;;;;;;;5.30;1.85;;;;;;;;;;5010546;28;20417;-60
2021/08/26 03:13:43;;;;;;;4.15;1.52;;;;;;;;;;5012711;28;20397;-60
2021/08/26 03:16:09;;;;;;;3.85;1.40;;;;;;;;;;5012389;28;20413;-59
2021/08/26 03:18:35;;;;;;;3.53;1.50;;;;;;;;;;5012017;28;20389;-60
2021/08/26 03:21:01;;;;;;;3.40;1.83;;;;;;;;;;5012621;28;20389;-60
2021/08/26 03:23:27;;;;;;;3.67;1.38;;;;;;;;;;5012638;28;20392;-59
2021/08/26 03:25:53;;;;;;;4.45;1.60;;;;;;;;;;5012445;28;20436;-59
2021/08/26 03:28:20;;;;;;;4.82;1.65;;;;;;;;;;5005032;28;20444;-60
2021/08/26 03:30:46;;;;;;;3.33;1.40;;;;;;;;;;5011791;28;20488;-60
2021/08/26 03:33:12;;;;;;;4.20;1.98;;;;;;;;;;5012344;28;20904;-59
2021/08/26 03:35:38;;;;;;;4.75;1.70;;;;;;;;;;5012603;28;20463;-60
2021/08/26 03:38:04;;;;;;;5.38;2.40;;;;;;;;;;5010711;28;20460;-60
2021/08/26 03:40:30;;;;;;;3.03;1.52;;;;;;;;;;5010901;28;20393;-60
2021/08/26 03:42:57;;;;;;;3.13;1.58;;;;;;;;;;5012401;28;20491;-60
2021/08/26 03:45:23;;;;;;;4.10;1.73;;;;;;;;;;5012150;28;20984;-60
2021/08/26 03:47:49;;;;;;;6.50;2.13;;;;;;;;;;5010964;28;20496;-60
2021/08/26 03:50:15;;;;;;;4.78;1.90;;;;;;;;;;5012238;28;20408;-59
2021/08/26 03:52:41;;;;;;;6.37;2.37;;;;;;;;;;5012204;28;20428;-58
2021/08/26 03:55:07;;;;;;;5.65;2.13;;;;;;;;;;5011855;28;20389;-58
2021/08/26 03:57:33;;;;;;;4.93;1.80;;;;;;;;;;5010846;28;21015;-60
2021/08/26 03:59:59;;;;;;;4.38;1.95;;;;;;;;;;5004364;28;20402;-60
2021/08/26 04:02:25;;;;;;;3.90;2.00;;;;;;;;;;5028076;28;20927;-58
2021/08/26 04:04:51;;;;;;;6.72;2.25;;;;;;;;;;5012094;28;20400;-59
2021/08/26 04:07:20;;;;;;;3.53;1.95;;;;;;;;;;5006051;28;20503;-60
2021/08/26 04:09:46;;;;;;;6.25;2.20;;;;;;;;;;5004750;28;20412;-59
2021/08/26 04:12:13;;;;;;;4.90;2.30;;;;;;;;;;5005183;28;20838;-60
2021/08/26 04:14:39;;;;;;;8.90;2.33;;;;;;;;;;5010925;28;20392;-60
2021/08/26 04:17:05;;;;;;;5.43;1.83;;;;;;;;;;5002220;28;20436;-60
2021/08/26 04:19:31;;;;;;;3.25;2.00;;;;;;;;;;5006409;28;20525;-60
2021/08/26 04:21:57;;;;;;;4.75;1.85;;;;;;;;;;5004787;28;20428;-60
2021/08/26 04:24:23;;;;;;;4.18;2.10;;;;;;;;;;5011203;28;20798;-60
2021/08/26 04:26:49;;;;;;;6.88;2.75;;;;;;;;;;5011579;28;20396;-60
2021/08/26 04:29:15;;;;;;;7.20;2.20;;;;;;;;;;5010435;28;20409;-58
2021/08/26 04:31:41;;;;;;;2.97;1.50;;;;;;;;;;5019819;28;20742;-60
2021/08/26 04:34:07;;;;;;;4.43;2.00;;;;;;;;;;5011426;28;20393;-60
2021/08/26 04:36:33;;;;;;;3.95;1.88;;;;;;;;;;5011441;28;20769;-59
2021/08/26 04:38:59;;;;;;;8.03;2.00;;;;;;;;;;5010795;28;20420;-60
2021/08/26 04:41:25;;;;;;;4.20;2.03;;;;;;;;;;5010516;28;20772;-60
2021/08/26 04:43:52;;;;;;;5.68;2.15;;;;;;;;;;5010899;28;20408;-60
2021/08/26 04:46:18;;;;;;;7.45;2.55;;;;;;;;;;5011256;28;20397;-60
2021/08/26 04:48:43;;;;;;;4.28;1.80;;;;;;;;;;5006975;28;20422;-60
2021/08/26 04:51:09;;;;;;;4.78;1.90;;;;;;;;;;5006012;28;20389;-59
2021/08/26 04:53:35;;;;;;;6.28;2.63;;;;;;;;;;5002931;28;20401;-60
2021/08/26 04:56:01;;;;;;;6.77;2.20;;;;;;;;;;5011235;28;20919;-60
2021/08/26 04:58:27;;;;;;;4.70;1.80;;;;;;;;;;5009119;28;20448;-60
2021/08/26 05:00:53;;;;;;;5.55;1.95;;;;;;;;;;5008679;28;20429;-60
2021/08/26 05:03:19;;;;;;;7.90;2.30;;;;;;;;;;5005246;28;20406;-60
2021/08/26 05:05:45;;;;;;;5.78;2.08;;;;;;;;;;5004354;28;20434;-60
2021/08/26 05:08:11;;;;;;;5.15;1.70;;;;;;;;;;5009877;28;20423;-60
2021/08/26 05:10:38;;;;;;;5.35;2.40;;;;;;;;;;5005051;28;20421;-59
2021/08/26 05:13:06;;;;;;;3.13;1.67;;;;;;;;;;5009896;28;20405;-60
2021/08/26 05:15:32;;;;;;;4.78;2.28;;;;;;;;;;5010748;28;20401;-59
2021/08/26 05:17:58;;;;;;;7.45;2.63;;;;;;;;;;5009417;28;20405;-60
2021/08/26 05:20:24;;;;;;;4.73;2.00;;;;;;;;;;5006573;28;20406;-60
2021/08/26 05:22:50;;;;;;;6.25;2.22;;;;;;;;;;5005959;28;20857;-58
2021/08/26 05:25:16;;;;;;;5.53;2.05;;;;;;;;;;5008761;28;20436;-59
2021/08/26 05:27:42;;;;;;;4.50;2.13;;;;;;;;;;5008600;28;20407;-60
2021/08/26 05:30:08;;;;;;;6.30;2.65;;;;;;;;;;5006023;28;20408;-60
2021/08/26 05:32:34;;;;;;;5.60;2.28;;;;;;;;;;5008999;28;20394;-60
2021/08/26 05:35:00;;;;;;;5.63;2.50;;;;;;;;;;5008689;28;20408;-60
2021/08/26 05:37:26;;;;;;;7.90;2.38;;;;;;;;;;5009244;28;20411;-60
2021/08/26 05:39:52;;;;;;;6.60;2.38;;;;;;;;;;5009992;28;20400;-60
2021/08/26 05:42:18;;;;;;;7.63;2.38;;;;;;;;;;5012651;28;20414;-60
2021/08/26 05:44:44;;;;;;;6.30;2.10;;;;;;;;;;5012813;28;20416;-60
2021/08/26 05:47:10;;;;;;;7.87;2.40;;;;;;;;;;5013031;28;20419;-60
2021/08/26 05:49:36;;;;;;;7.77;2.47;;;;;;;;;;5013955;28;20418;-60
2021/08/26 05:52:02;;;;;;;6.15;1.80;;;;;;;;;;5014352;28;20385;-60
2021/08/26 05:54:28;;;;;;;6.50;2.50;;;;;;;;;;5009023;28;20392;-59
2021/08/26 05:56:58;;;;;;;6.85;2.25;;;;;;;;;;5007917;28;20419;-60
2021/08/26 05:59:24;;;;;;;9.15;2.20;;;;;;;;;;5008363;28;20391;-58
2021/08/26 06:01:50;;;;;;;5.95;2.03;;;;;;;;;;5007837;28;20393;-60
2021/08/26 06:04:16;;;;;;;5.90;2.50;;;;;;;;;;5011038;28;20769;-60
2021/08/26 06:06:42;;;;;;;9.40;2.90;;;;;;;;;;5011073;28;20442;-60
2021/08/26 06:09:08;;;;;;;5.55;2.25;;;;;;;;;;5003930;28;20416;-60
2021/08/26 06:11:34;;;;;;;7.38;2.72;;;;;;;;;;5011825;28;20460;-60
2021/08/26 06:14:00;;;;;;;7.53;2.60;;;;;;;;;;5012785;28;20385;-60
2021/08/26 06:16:26;;;;;;;6.00;2.42;;;;;;;;;;5024769;28;20898;-60
2021/08/26 06:18:52;;;;;;;8.80;2.65;;;;;;;;;;5013197;28;20401;-58
2021/08/26 06:21:19;;;;;;;6.57;2.30;;;;;;;;;;5012625;28;20793;-58
2021/08/26 06:23:45;;;;;;;6.10;2.15;;;;;;;;;;5007262;28;20394;-60
2021/08/26 06:26:11;;;;;;;9.90;2.88;;;;;;;;;;5012217;28;20834;-58
2021/08/26 06:28:37;;;;;;;8.75;2.45;;;;;;;;;;5011815;28;20423;-60
2021/08/26 06:31:03;;;;;;;7.15;2.50;;;;;;;;;;5011724;28;20389;-59
2021/08/26 06:33:29;;;;;;;5.97;2.28;;;;;;;;;;5002659;28;20389;-60
2021/08/26 06:35:55;;;;;;;6.40;1.92;;;;;;;;;;5011711;28;20943;-60
2021/08/26 06:38:21;;;;;;;6.78;2.53;;;;;;;;;;5010466;28;20403;-60
2021/08/26 06:40:47;;;;;;;5.05;1.90;;;;;;;;;;5012903;28;20388;-60
2021/08/26 06:43:13;;;;;;;4.68;2.10;;;;;;;;;;5004953;28;20405;-60
2021/08/26 06:45:39;;;;;;;4.80;2.05;;;;;;;;;;5013363;28;20385;-60
2021/08/26 06:48:05;;;;;;;5.55;1.63;;;;;;;;;;5012937;28;20451;-59
2021/08/26 06:50:31;;;;;;;6.60;2.30;;;;;;;;;;5013042;28;20405;-60
2021/08/26 06:52:57;;;;;;;7.35;2.42;;;;;;;;;;5012288;28;20803;-60
2021/08/26 06:55:23;;;;;;;8.80;2.33;;;;;;;;;;5013362;28;20403;-60
2021/08/26 06:57:49;;;;;;;6.10;1.98;;;;;;;;;;5012087;28;20397;-59
2021/08/26 07:00:15;;;;;;;7.60;2.17;;;;;;;;;;5012571;28;20401;-59
2021/08/26 07:02:41;;;;;;;6.28;2.45;;;;;;;;;;5011823;28;20476;-59
2021/08/26 07:05:08;;;;;;;9.43;2.60;;;;;;;;;;5008668;28;20772;-60
2021/08/26 07:07:34;;;;;;;8.65;2.20;;;;;;;;;;5012908;28;20542;-60
2021/08/26 07:10:00;;;;;;;5.25;1.90;;;;;;;;;;5012438;28;20427;-60
2021/08/26 07:12:30;;;;;;;8.30;2.63;;;;;;;;;;5012078;28;20749;-60
2021/08/26 07:14:57;;;;;;;4.18;1.73;;;;;;;;;;5013068;28;20388;-60
2021/08/26 07:17:23;;;;;;;5.00;1.48;;;;;;;;;;5013091;28;20392;-60
2021/08/26 07:19:49;;;;;;;5.75;1.85;;;;;;;;;;5012641;28;20790;-60
2021/08/26 07:22:15;;;;;;;3.50;1.65;;;;;;;;;;5012274;28;20455;-60
2021/08/26 07:24:41;;;;;;;4.90;1.58;;;;;;;;;;5011112;28;20443;-60
2021/08/26 07:27:07;;;;;;;5.07;1.70;;;;;;;;;;5011183;28;20433;-60
2021/08/26 07:29:32;;;;;;;5.90;1.80;;;;;;;;;;5010602;28;20424;-60
2021/08/26 07:31:58;;;;;;;4.60;1.42;;;;;;;;;;5012252;28;20392;-60
2021/08/26 07:34:24;;;;;;;4.40;1.50;;;;;;;;;;5012795;28;20392;-59
2021/08/26 07:36:50;;;;;;;3.00;1.10;;;;;;;;;;5009744;28;20933;-60
2021/08/26 07:39:16;;;;;;;3.13;1.40;;;;;;;;;;5013588;28;20385;-61
2021/08/26 07:41:43;;;;;;;5.05;1.40;;;;;;;;;;5012257;28;20397;-60
2021/08/26 07:44:09;;;;;;;3.60;1.30;;;;;;;;;;5012209;28;20388;-60
2021/08/26 07:46:35;;;;;;;5.57;1.58;;;;;;;;;;5011463;28;20496;-60
2021/08/26 07:49:01;;;;;;;4.70;1.25;;;;;;;;;;5012250;28;20479;-60
2021/08/26 07:51:27;;;;;;;4.68;1.70;;;;;;;;;;5012328;28;20381;-60
2021/08/26 07:53:53;;;;;;;8.20;1.43;;;;;;;;;;5012155;28;20792;-60
2021/08/26 07:56:19;;;;;;;3.45;1.27;;;;;;;;;;5010909;28;20381;-60
2021/08/26 07:58:45;;;;;;;3.25;1.15;;;;;;;;;;5011506;28;20400;-60
2021/08/26 08:01:11;;;;;;;3.90;1.27;;;;;;;;;;5011304;28;21041;-60
2021/08/26 08:03:37;;;;;;;3.53;1.50;;;;;;;;;;5011632;28;20976;-60
2021/08/26 08:06:04;;;;;;;3.03;1.00;;;;;;;;;;5010940;28;20397;-60
2021/08/26 08:08:30;;;;;;;2.60;0.93;;;;;;;;;;5011868;28;20396;-60
2021/08/26 08:10:56;;;;;;;3.55;0.70;;;;;;;;;;5018164;28;20417;-60
2021/08/26 08:13:22;;;;;;;1.77;0.90;;;;;;;;;;5010119;28;20392;-59
2021/08/26 08:15:48;;;;;;;3.10;0.95;;;;;;;;;;5011638;28;20389;-60
2021/08/26 08:18:14;;;;;;;2.80;0.97;;;;;;;;;;5011519;28;20385;-60
2021/08/26 08:20:40;;;;;;;3.55;0.70;;;;;;;;;;5011445;28;20810;-60
2021/08/26 08:23:06;;;;;;;2.47;0.77;;;;;;;;;;5011362;28;20549;-59
2021/08/26 08:25:32;;;;;;;1.95;0.57;;;;;;;;;;5011243;28;20773;-60
2021/08/26 08:27:59;;;;;;;2.38;1.00;;;;;;;;;;5008637;28;20401;-60
2021/08/26 08:30:27;;;;;;;3.75;0.90;;;;;;;;;;5011792;28;20469;-59
2021/08/26 08:32:58;;;;;;;3.33;0.80;;;;;;;;;;5011502;28;20385;-60
2021/08/26 08:35:24;;;;;;;2.53;0.80;;;;;;;;;;5011309;28;20726;-60
2021/08/26 08:37:51;;;;;;;2.10;0.77;;;;;;;;;;5008896;28;20949;-60
2021/08/26 08:40:17;;;;;;;2.53;0.90;;;;;;;;;;5010497;28;20408;-60
2021/08/26 08:42:44;;;;;;;2.08;0.70;;;;;;;;;;5011212;28;20389;-60
2021/08/26 08:45:10;;;;;;;3.60;0.90;;;;;;;;;;5011381;28;20766;-60
2021/08/26 08:47:37;;;;;;;2.10;0.80;;;;;;;;;;5011078;28;20998;-60
2021/08/26 08:50:03;;;;;;;2.10;0.70;;;;;;;;;;5010943;28;20419;-60
2021/08/26 08:52:33;;;;;;;3.17;0.80;;;;;;;;;;5011458;28;20388;-60
2021/08/26 08:54:59;;;;;;;2.10;0.73;;;;;;;;;;5011006;28;20407;-59
2021/08/26 08:57:25;;;;;;;1.38;0.70;;;;;;;;;;5010045;28;20411;-60
2021/08/26 08:59:51;;;;;;;2.85;0.82;;;;;;;;;;5011022;28;20392;-60
2021/08/26 09:02:17;;;;;;;1.38;0.60;;;;;;;;;;5001923;28;20397;-60
2021/08/26 09:04:56;;;;;;;2.45;0.80;;;;;;;;;;5011016;28;20393;-60
2021/08/26 09:07:23;;;;;;;2.40;0.80;;;;;;;;;;5008585;28;20403;-60
2021/08/26 09:09:51;;;;;;;2.00;0.60;;;;;;;;;;5010569;28;20451;-59
2021/08/26 09:12:17;;;;;;;1.90;0.40;;;;;;;;;;5010964;28;20407;-60
2021/08/26 09:14:43;;;;;;;1.95;0.50;;;;;;;;;;5011186;28;20388;-60
2021/08/26 09:17:16;;;;;;;0.95;0.32;;;;;;;;;;5007968;28;20931;-60
2021/08/26 09:19:43;;;;;;;1.45;0.40;;;;;;;;;;5007264;28;20471;-58
2021/08/26 09:22:09;;;;;;;2.40;0.50;;;;;;;;;;5010463;28;20384;-59
2021/08/26 09:24:45;;;;;;;1.63;0.30;;;;;;;;;;5009075;28;20405;-59
2021/08/26 09:27:12;;;;;;;0.50;0.30;;;;;;;;;;5010278;28;20389;-60
2021/08/26 09:29:57;;;;;;;0.85;0.43;;;;;;;;;;5010207;28;20417;-60
2021/08/26 09:32:32;;;;;;;1.13;0.32;;;;;;;;;;5010284;28;20483;-60
2021/08/26 09:35:08;;;;;;;1.05;0.43;;;;;;;;;;5010708;28;20401;-60
2021/08/26 09:37:38;;;;;;;0.85;0.30;;;;;;;;;;5005123;28;21327;-60
2021/08/26 09:40:06;;;;;;;0.45;0.28;;;;;;;;;;5010440;28;20913;-60
2021/08/26 09:42:31;;;;;;;1.20;0.40;;;;;;;;;;5010028;28;20495;-60
2021/08/26 09:45:14;;;;;;;1.80;0.50;;;;;;;;;;5010952;28;20496;-58
2021/08/26 09:47:59;;;;;;;1.67;0.45;;;;;;;;;;5010140;28;20475;-60
2021/08/26 09:50:45;;;;;;;0.30;0.30;;;;;;;;;;5010238;28;20833;-60
2021/08/26 09:53:12;;;;;;;1.02;0.30;;;;;;;;;;5010547;28;20416;-60
2021/08/26 09:55:50;;;;;;;0.30;0.25;;;;;;;;;;5010090;28;20492;-60
2021/08/26 09:58:17;;;;;;;1.00;0.30;;;;;;;;;;5010056;28;20827;-60
2021/08/26 10:00:43;;;;;;;0.63;0.28;;;;;;;;;;5010583;28;20931;-60
2021/08/26 10:03:14;;;;;;;0.70;0.30;;;;;;;;;;5010137;28;20551;-60
2021/08/26 10:05:44;;;;;;;0.40;0.15;;;;;;;;;;5010613;28;20389;-60
2021/08/26 10:08:10;;;;;;;0.90;0.30;;;;;;;;;;5010302;28;20971;-60
2021/08/26 10:10:38;;;;;;;1.60;0.30;;;;;;;;;;5005033;28;20568;-59
2021/08/26 10:13:04;;;;;;;0.90;0.30;;;;;;;;;;5009979;28;20484;-59
2021/08/26 10:15:30;;;;;;;1.05;0.25;;;;;;;;;;5010531;28;20432;-60
2021/08/26 10:17:56;;;;;;;0.32;0.20;;;;;;;;;;5010504;28;20419;-60
2021/08/26 10:20:22;;;;;;;2.08;0.20;;;;;;;;;;5015996;28;20531;-60
2021/08/26 10:22:49;;;;;;;1.42;0.40;;;;;;;;;;5009960;28;20401;-60
2021/08/26 10:25:16;;;;;;;0.40;0.30;;;;;;;;;;5008869;28;20417;-61
2021/08/26 10:27:42;;;;;;;0.50;0.30;;;;;;;;;;5010053;28;20410;-59
2021/08/26 10:30:08;;;;;;;1.35;0.35;;;;;;;;;;5012258;28;20507;-61
2021/08/26 10:32:34;;;;;;;0.80;0.60;;;;;;;;;;5013051;28;20495;-61
2021/08/26 10:35:14;;;;;;;1.75;0.52;;;;;;;;;;5010679;28;20392;-61
2021/08/26 10:37:52;;;;;;;0.73;0.22;;;;;;;;;;5009697;28;20392;-61
2021/08/26 10:40:29;;;;;;;0.55;0.30;;;;;;;;;;5014662;28;20968;-61
2021/08/26 10:42:55;;;;;;;1.65;0.50;;;;;;;;;;5008645;28;20396;-60
2021/08/26 10:45:25;;;;;;;0.20;0.10;;;;;;;;;;5013531;28;20495;-60
2021/08/26 10:47:52;;;;;;;0.47;0.08;;;;;;;;;;5013009;28;20467;-61
2021/08/26 10:50:20;;;;;;;0.63;0.20;;;;;;;;;;5013303;28;20951;-61
2021/08/26 10:52:59;;;;;;;0.40;0.20;;;;;;;;;;5012585;28;20467;-60
2021/08/26 10:55:32;;;;;;;0.50;0.20;;;;;;;;;;5013395;28;20401;-61
2021/08/26 10:58:16;;;;;;;0.85;0.22;;;;;;;;;;5012810;28;20389;-61
2021/08/26 11:00:45;;;;;;;0.50;0.10;;;;;;;;;;5013467;28;20384;-61
2021/08/26 11:03:31;;;;;;;0.40;0.20;;;;;;;;;;5013188;28;20408;-61
2021/08/26 11:05:57;;;;;;;0.70;0.10;;;;;;;;;;5009989;28;20402;-60
2021/08/26 11:08:30;;;;;;;0.45;0.10;;;;;;;;;;5008425;28;20385;-60
2021/08/26 11:10:57;;;;;;;0.43;0.20;;;;;;;;;;5013024;28;20409;-60
2021/08/26 11:13:33;;;;;;;0.60;0.10;;;;;;;;;;5013150;28;20480;-60
2021/08/26 11:16:18;;;;;;;0.57;0.15;;;;;;;;;;5013135;28;20377;-60
2021/08/26 11:18:44;;;;;;;0.40;0.20;;;;;;;;;;5009424;28;20860;-60
2021/08/26 11:21:10;;;;;;;0.98;0.10;;;;;;;;;;5011330;28;20407;-60
2021/08/26 11:23:45;;;;;;;1.40;0.20;;;;;;;;;;5013050;28;20531;-60
2021/08/26 11:26:31;;;;;;;0.55;0.30;;;;;;;;;;5012693;28;20792;-60
2021/08/26 11:29:17;;;;;;;0.73;0.15;;;;;;;;;;5011834;28;20435;-60
2021/08/26 11:31:57;;;;;;;0.30;0.20;;;;;;;;;;5010728;28;20508;-60
2021/08/26 11:34:33;;;;;;;1.33;0.20;;;;;;;;;;5010782;28;20395;-60
2021/08/26 11:37:04;;;;;;;0.40;0.20;;;;;;;;;;5005355;28;20377;-60
2021/08/26 11:39:30;;;;;;;1.30;0.27;;;;;;;;;;5011773;28;20429;-58
2021/08/26 11:41:56;;;;;;;1.60;0.45;;;;;;;;;;5012647;28;20472;-59
2021/08/26 11:44:22;;;;;;;1.20;0.40;;;;;;;;;;5011224;28;20400;-60
2021/08/26 11:46:48;;;;;;;0.38;0.20;;;;;;;;;;5012657;28;20395;-60
2021/08/26 11:49:14;;;;;;;0.40;0.30;;;;;;;;;;5011331;28;20416;-59
2021/08/26 11:51:40;;;;;;;0.50;0.20;;;;;;;;;;5012664;28;20936;-60
2021/08/26 11:54:17;;;;;;;1.40;0.17;;;;;;;;;;5012402;28;20394;-59
2021/08/26 11:56:43;;;;;;;0.40;0.20;;;;;;;;;;5011679;28;20511;-61
2021/08/26 11:59:24;;;;;;;0.20;0.15;;;;;;;;;;5013322;28;20392;-61
2021/08/26 12:01:50;;;;;;;0.22;0.10;;;;;;;;;;5005066;28;20455;-60
2021/08/26 12:04:16;;;;;;;1.30;0.20;;;;;;;;;;5011915;28;20396;-60
2021/08/26 12:06:48;;;;;;;0.37;0.10;;;;;;;;;;5012211;28;20401;-60
2021/08/26 12:09:14;;;;;;;0.47;0.10;;;;;;;;;;5011806;28;20412;-60
2021/08/26 12:11:40;;;;;;;0.40;0.17;;;;;;;;;;5011153;28;20412;-61
2021/08/26 12:14:09;;;;;;;0.30;0.10;;;;;;;;;;5008650;28;20408;-60
2021/08/26 12:16:35;;;;;;;0.40;0.10;;;;;;;;;;5008873;28;20452;-60
2021/08/26 12:19:04;;;;;;;0.10;0.10;;;;;;;;;;5011174;28;20393;-60
2021/08/26 12:21:30;;;;;;;0.60;0.10;;;;;;;;;;5011374;28;20395;-60
2021/08/26 12:23:56;;;;;;;0.30;0.10;;;;;;;;;;5010951;28;20389;-60
2021/08/26 12:26:22;;;;;;;0.83;0.20;;;;;;;;;;5010644;28;20887;-61
2021/08/26 12:29:01;;;;;;;0.20;0.05;;;;;;;;;;5011157;28;20511;-60
2021/08/26 12:31:28;;;;;;;0.95;0.10;;;;;;;;;;5008754;28;20432;-61
2021/08/26 12:34:08;;;;;;;1.40;0.10;;;;;;;;;;5010834;28;20480;-61
2021/08/26 12:36:38;;;;;;;2.97;0.73;;;;;;;;;;5011369;28;20741;-61
2021/08/26 12:39:15;;;;;;;1.67;0.45;;;;;;;;;;5008260;28;20745;-60
2021/08/26 12:41:41;;;;;;;0.05;0.00;;;;;;;;;;5006191;28;20473;-60
2021/08/26 12:44:07;;;;;;;1.20;0.40;;;;;;;;;;5006966;28;20717;-61
2021/08/26 12:46:40;;;;;;;0.15;0.00;;;;;;;;;;5011553;28;20389;-61
2021/08/26 12:49:11;;;;;;;2.28;0.20;;;;;;;;;;5010849;28;20636;-61
2021/08/26 12:51:54;;;;;;;0.10;0.00;;;;;;;;;;5007063;28;20403;-61
2021/08/26 12:54:20;;;;;;;0.45;0.10;;;;;;;;;;5011693;28;20380;-61
2021/08/26 12:56:47;;;;;;;0.80;0.20;;;;;;;;;;5008085;28;20407;-61
2021/08/26 12:59:13;;;;;;;0.45;0.05;;;;;;;;;;5010975;28;20873;-61
2021/08/26 13:01:41;;;;;;;0.68;0.20;;;;;;;;;;5011298;28;20869;-61
2021/08/26 13:04:18;;;;;;;0.20;0.10;;;;;;;;;;5008803;28;20772;-60
2021/08/26 13:06:45;;;;;;;0.50;0.10;;;;;;;;;;5007531;28;20405;-60
2021/08/26 13:09:13;;;;;;;0.28;0.10;;;;;;;;;;5010931;28;20773;-60
2021/08/26 13:11:54;;;;;;;0.70;0.10;;;;;;;;;;5009716;28;20409;-59
2021/08/26 13:14:20;;;;;;;0.60;0.20;;;;;;;;;;5011503;28;20423;-59
2021/08/26 13:16:46;;;;;;;0.15;0.00;;;;;;;;;;5011138;28;20424;-59
2021/08/26 13:19:12;;;;;;;2.47;0.10;;;;;;;;;;5011230;28;20424;-60
2021/08/26 13:21:38;;;;;;;1.20;0.20;;;;;;;;;;5009951;28;20396;-59
2021/08/26 13:24:04;;;;;;;0.40;0.10;;;;;;;;;;5009566;28;20396;-59
2021/08/26 13:26:30;;;;;;;0.45;0.17;;;;;;;;;;5010066;28;20463;-59
2021/08/26 13:28:56;;;;;;;1.38;0.17;;;;;;;;;;5009658;28;20752;-59
2021/08/26 13:31:23;;;;;;;0.20;0.00;;;;;;;;;;5006955;28;20463;-60
2021/08/26 13:33:50;;;;;;;0.00;0.00;;;;;;;;;;5008008;28;20407;-60
2021/08/26 13:36:16;;;;;;;0.10;0.10;;;;;;;;;;5010748;28;20385;-57
2021/08/26 13:38:42;;;;;;;0.70;0.13;;;;;;;;;;5005958;28;20381;-60
2021/08/26 13:41:08;;;;;;;0.30;0.10;;;;;;;;;;5008730;28;20761;-61
2021/08/26 13:43:34;;;;;;;0.13;0.00;;;;;;;;;;5009526;28;20479;-61
2021/08/26 13:46:01;;;;;;;0.10;0.00;;;;;;;;;;5002934;28;20396;-60
2021/08/26 13:48:26;;;;;;;0.38;0.20;;;;;;;;;;5004179;28;20500;-59
2021/08/26 13:50:52;;;;;;;0.17;0.10;;;;;;;;;;5008995;28;20415;-59
2021/08/26 13:53:18;;;;;;;0.20;0.00;;;;;;;;;;5010677;28;20409;-59
2021/08/26 13:55:44;;;;;;;0.00;0.00;;;;;;;;;;5007526;28;20516;-60
2021/08/26 13:58:10;;;;;;;0.70;0.30;;;;;;;;;;5005213;28;20408;-60
2021/08/26 14:00:36;;;;;;;0.10;0.00;;;;;;;;;;5005211;28;20446;-60
2021/08/26 14:03:02;;;;;;;0.00;0.00;;;;;;;;;;5005718;28;20462;-60
2021/08/26 14:05:29;;;;;;;0.80;0.10;;;;;;;;;;5014023;28;20404;-60
2021/08/26 14:07:56;;;;;;;0.63;0.10;;;;;;;;;;5013617;28;20396;-60
2021/08/26 14:10:22;;;;;;;0.35;0.00;;;;;;;;;;5004766;28;20414;-59
2021/08/26 14:12:49;;;;;;;0.08;0.00;;;;;;;;;;5012790;28;20466;-60
2021/08/26 14:15:15;;;;;;;0.70;0.10;;;;;;;;;;5014054;28;20396;-60
2021/08/26 14:17:41;;;;;;;0.60;0.10;;;;;;;;;;5013114;28;20905;-60
2021/08/26 14:20:07;;;;;;;0.08;0.05;;;;;;;;;;5014156;28;20523;-60
2021/08/26 14:22:34;;;;;;;0.40;0.00;;;;;;;;;;5012305;28;20397;-60
2021/08/26 14:25:01;;;;;;;0.40;0.10;;;;;;;;;;5014334;28;20526;-60
2021/08/26 14:27:27;;;;;;;0.20;0.10;;;;;;;;;;5012219;28;20409;-60
2021/08/26 14:29:53;;;;;;;0.52;0.00;;;;;;;;;;5011510;28;20416;-59
2021/08/26 14:32:19;;;;;;;0.50;0.10;;;;;;;;;;5011733;28;20400;-59
2021/08/26 14:34:45;;;;;;;0.10;0.00;;;;;;;;;;5013492;28;20450;-58
2021/08/26 14:37:11;;;;;;;0.10;0.10;;;;;;;;;;5013568;28;21040;-60
2021/08/26 14:39:37;;;;;;;0.10;0.00;;;;;;;;;;5009496;28;20826;-60
2021/08/26 14:42:04;;;;;;;0.10;0.00;;;;;;;;;;5013359;28;20408;-60
2021/08/26 14:44:30;;;;;;;0.10;0.03;;;;;;;;;;5012343;28;20401;-59
2021/08/26 14:46:56;;;;;;;0.00;0.00;;;;;;;;;;5011458;28;20409;-60
2021/08/26 14:49:22;;;;;;;1.47;0.10;;;;;;;;;;5011207;28;20409;-60